createdAt,value
2022-11-28T00:01:13.388Z,6.83
2022-11-28T00:04:00.613Z,6.50
2022-11-28T00:06:51.083Z,6.40
2022-11-28T00:09:38.211Z,7.43
2022-11-28T00:12:26.337Z,7.43
2022-11-28T00:15:13.920Z,7.27
2022-11-28T00:18:01.159Z,6.70
2022-11-28T00:20:48.315Z,7.20
2022-11-28T00:23:35.694Z,7.77
2022-11-28T00:26:28.878Z,6.90
2022-11-28T00:29:16.009Z,7.03
2022-11-28T00:32:03.517Z,7.57
2022-11-28T00:34:50.666Z,9.17
2022-11-28T00:37:37.649Z,8.33
2022-11-28T00:40:24.738Z,8.17
2022-11-28T00:43:12.869Z,7.87
2022-11-28T00:46:00.188Z,6.97
2022-11-28T00:48:47.772Z,8.20
2022-11-28T00:51:35.394Z,7.20
2022-11-28T00:54:22.436Z,7.43
2022-11-28T00:57:09.450Z,7.43
2022-11-28T00:59:56.427Z,8.23
2022-11-28T01:02:43.553Z,7.27
2022-11-28T01:05:31.089Z,7.87
2022-11-28T01:08:18.239Z,6.93
2022-11-28T01:11:12.802Z,8.33
2022-11-28T01:14:01.616Z,6.80
2022-11-28T01:16:49.488Z,8.40
2022-11-28T01:19:36.566Z,6.70
2022-11-28T01:22:23.571Z,7.80
2022-11-28T01:25:10.602Z,7.53
2022-11-28T01:27:57.784Z,7.30
2022-11-28T01:30:44.785Z,7.03
2022-11-28T01:33:32.122Z,6.90
2022-11-28T01:36:20.397Z,7.47
2022-11-28T01:39:07.592Z,8.13
2022-11-28T01:41:54.574Z,7.13
2022-11-28T01:44:41.828Z,7.83
2022-11-28T01:47:30.911Z,7.70
2022-11-28T01:50:18.797Z,7.50
2022-11-28T01:53:10.180Z,8.47
2022-11-28T01:56:08.013Z,7.77
2022-11-28T01:59:02.520Z,6.93
2022-11-28T02:01:49.694Z,6.97
2022-11-28T02:04:36.732Z,6.73
2022-11-28T02:07:23.996Z,7.20
2022-11-28T02:10:17.252Z,7.30
2022-11-28T02:13:21.150Z,7.03
2022-11-28T02:16:44.427Z,6.90
2022-11-28T02:20:01.672Z,6.30
2022-11-28T02:23:04.381Z,6.37
2022-11-28T02:26:06.464Z,6.70
2022-11-28T02:29:15.161Z,7.37
2022-11-28T02:32:11.019Z,7.20
2022-11-28T02:35:15.882Z,6.37
2022-11-28T02:38:16.324Z,6.80
2022-11-28T02:41:16.341Z,6.80
2022-11-28T02:44:14.003Z,6.87
2022-11-28T02:47:07.407Z,6.53
2022-11-28T02:50:10.418Z,7.20
2022-11-28T02:53:06.175Z,6.93
2022-11-28T02:55:53.637Z,8.27
2022-11-28T02:58:41.085Z,7.60
2022-11-28T03:01:36.531Z,8.07
2022-11-28T03:04:31.695Z,9.27
2022-11-28T03:07:52.438Z,8.73
2022-11-28T03:10:52.112Z,8.93
2022-11-28T03:13:53.424Z,9.53
2022-11-28T03:16:54.323Z,8.97
2022-11-28T03:20:10.337Z,9.17
2022-11-28T03:23:12.143Z,9.80
2022-11-28T03:26:04.837Z,9.27
2022-11-28T03:29:04.468Z,9.57
2022-11-28T03:31:59.644Z,9.53
2022-11-28T03:34:52.250Z,10.07
2022-11-28T03:37:49.885Z,8.83
2022-11-28T03:40:43.624Z,9.33
2022-11-28T03:43:38.640Z,9.03
2022-11-28T03:46:31.966Z,9.00
2022-11-28T03:49:29.056Z,9.70
2022-11-28T03:52:31.025Z,10.30
2022-11-28T03:55:25.992Z,9.83
2022-11-28T03:58:24.599Z,9.67
2022-11-28T04:01:23.877Z,8.93
2022-11-28T04:04:31.639Z,10.27
2022-11-28T04:07:32.566Z,8.83
2022-11-28T04:10:31.659Z,11.17
2022-11-28T04:13:26.350Z,9.27
2022-11-28T04:16:24.825Z,10.17
2022-11-28T04:19:14.994Z,9.43
2022-11-28T04:22:18.524Z,10.53
2022-11-28T04:25:10.548Z,10.30
2022-11-28T04:28:02.160Z,10.63
2022-11-28T04:30:51.012Z,10.27
2022-11-28T04:33:43.085Z,9.13
2022-11-28T04:36:31.635Z,10.25
2022-11-28T04:39:22.232Z,11.07
2022-11-28T04:42:15.319Z,11.73
2022-11-28T04:45:09.039Z,9.73
2022-11-28T04:47:56.716Z,10.10
2022-11-28T04:50:54.203Z,11.40
2022-11-28T04:53:48.267Z,9.67
2022-11-28T04:57:00.715Z,11.30
2022-11-28T04:59:49.327Z,10.43
2022-11-28T05:02:37.938Z,11.50
2022-11-28T05:05:28.507Z,11.10
2022-11-28T05:08:16.497Z,11.30
2022-11-28T05:11:03.662Z,11.63
2022-11-28T05:13:50.696Z,10.20
2022-11-28T05:16:37.899Z,9.87
2022-11-28T05:19:25.041Z,10.37
2022-11-28T05:22:12.192Z,10.67
2022-11-28T05:24:59.266Z,9.63
2022-11-28T05:27:46.365Z,10.00
2022-11-28T05:30:33.503Z,9.63
2022-11-28T05:33:20.498Z,10.80
2022-11-28T05:36:13.093Z,10.10
2022-11-28T05:39:00.715Z,10.10
2022-11-28T05:41:47.724Z,9.13
2022-11-28T05:44:34.745Z,10.53
2022-11-28T05:47:23.738Z,10.47
2022-11-28T05:50:11.081Z,9.50
2022-11-28T05:52:58.285Z,10.13
2022-11-28T05:55:45.592Z,9.50
2022-11-28T05:58:32.684Z,8.97
2022-11-28T06:01:30.137Z,9.77
2022-11-28T06:04:17.284Z,9.43
2022-11-28T06:07:04.307Z,9.20
2022-11-28T06:09:51.483Z,10.77
2022-11-28T06:12:38.618Z,10.00
2022-11-28T06:15:25.951Z,10.37
2022-11-28T06:18:13.244Z,10.30
2022-11-28T06:21:04.992Z,10.40
2022-11-28T06:23:52.057Z,9.87
2022-11-28T06:26:39.140Z,11.13
2022-11-28T06:29:26.256Z,11.30
2022-11-28T06:32:15.528Z,10.07
2022-11-28T06:35:06.320Z,10.30
2022-11-28T06:37:53.369Z,13.63
2022-11-28T06:40:41.732Z,10.97
2022-11-28T06:43:30.062Z,10.00
2022-11-28T06:46:19.322Z,10.10
2022-11-28T06:49:06.415Z,10.50
2022-11-28T06:51:53.605Z,10.37
2022-11-28T06:54:41.713Z,9.83
2022-11-28T06:57:28.788Z,11.73
2022-11-28T07:00:16.530Z,13.17
2022-11-28T07:03:03.768Z,10.57
2022-11-28T07:05:50.744Z,12.30
2022-11-28T07:08:38.192Z,11.37
2022-11-28T07:11:28.447Z,11.37
2022-11-28T07:14:15.521Z,11.67
2022-11-28T07:17:02.693Z,11.83
2022-11-28T07:19:54.866Z,11.50
2022-11-28T07:22:43.636Z,10.93
2022-11-28T07:25:30.620Z,11.53
2022-11-28T07:28:20.667Z,10.03
2022-11-28T07:31:18.850Z,12.10
2022-11-28T07:34:06.058Z,11.13
2022-11-28T07:36:53.149Z,12.03
2022-11-28T07:39:42.588Z,11.10
2022-11-28T07:42:30.000Z,12.53
2022-11-28T07:45:17.529Z,11.33
2022-11-28T07:48:04.652Z,11.17
2022-11-28T07:50:51.902Z,11.47
2022-11-28T07:53:39.806Z,11.40
2022-11-28T07:56:44.296Z,11.77
2022-11-28T07:59:36.624Z,11.73
2022-11-28T08:02:23.718Z,12.30
2022-11-28T08:05:12.834Z,11.60
2022-11-28T08:08:00.109Z,11.60
2022-11-28T08:10:47.202Z,11.10
2022-11-28T08:13:35.404Z,13.10
2022-11-28T08:16:24.714Z,12.50
2022-11-28T08:19:12.022Z,11.77
2022-11-28T08:21:59.199Z,11.47
2022-11-28T08:24:46.307Z,11.90
2022-11-28T08:27:33.388Z,13.40
2022-11-28T08:30:20.452Z,11.53
2022-11-28T08:33:07.708Z,12.43
2022-11-28T08:35:54.790Z,13.23
2022-11-28T08:38:53.459Z,12.73
2022-11-28T08:41:50.177Z,12.23
2022-11-28T08:44:37.402Z,12.60
2022-11-28T08:47:24.595Z,13.67
2022-11-28T08:50:11.629Z,12.10
2022-11-28T08:53:01.918Z,12.60
2022-11-28T08:55:54.640Z,14.70
2022-11-28T08:58:41.655Z,13.70
2022-11-28T09:01:28.774Z,12.73
2022-11-28T09:04:15.989Z,13.97
2022-11-28T09:07:03.315Z,11.83
2022-11-28T09:09:50.331Z,12.70
2022-11-28T09:12:37.283Z,12.33
2022-11-28T09:15:24.358Z,13.53
2022-11-28T09:18:14.344Z,13.63
2022-11-28T09:21:04.528Z,15.97
2022-11-28T09:23:54.311Z,14.63
2022-11-28T09:26:42.566Z,13.33
2022-11-28T09:29:29.933Z,14.20
2022-11-28T09:32:16.994Z,12.47
2022-11-28T09:35:04.284Z,13.20
2022-11-28T09:37:51.460Z,11.80
2022-11-28T09:40:43.382Z,12.93
2022-11-28T09:43:37.851Z,12.93
2022-11-28T09:46:29.912Z,13.20
2022-11-28T09:49:19.948Z,13.60
2022-11-28T09:52:28.252Z,12.33
2022-11-28T09:55:34.504Z,12.30
2022-11-28T09:58:33.564Z,11.97
2022-11-28T10:01:48.884Z,12.90
2022-11-28T10:04:47.858Z,12.17
2022-11-28T10:07:37.980Z,11.37
2022-11-28T10:10:37.741Z,11.53
2022-11-28T10:17:12.773Z,12.33
2022-11-28T10:20:09.879Z,11.70
2022-11-28T10:23:02.755Z,12.33
2022-11-28T10:25:59.472Z,11.67
2022-11-28T10:28:51.625Z,13.00
2022-11-28T10:31:44.678Z,12.43
2022-11-28T10:34:46.904Z,12.53
2022-11-28T10:37:36.791Z,11.43
2022-11-28T10:40:23.730Z,11.67
2022-11-28T10:43:40.118Z,13.03
2022-11-28T10:46:43.966Z,12.00
2022-11-28T10:49:49.417Z,11.37
2022-11-28T10:52:53.443Z,13.37
2022-11-28T10:56:11.680Z,12.87
2022-11-28T10:59:11.879Z,12.17
2022-11-28T11:02:00.653Z,12.43
2022-11-28T11:04:48.312Z,12.23
2022-11-28T11:07:35.493Z,10.93
2022-11-28T11:10:25.360Z,11.33
2022-11-28T11:13:24.987Z,11.73
2022-11-28T11:16:12.278Z,11.23
2022-11-28T11:18:59.420Z,12.00
2022-11-28T11:21:58.901Z,12.50
2022-11-28T11:25:20.127Z,10.90
2022-11-28T11:28:07.328Z,12.37
2022-11-28T11:31:01.198Z,12.20
2022-11-28T11:34:01.841Z,11.60
2022-11-28T11:36:50.367Z,11.70
2022-11-28T11:39:47.831Z,11.20
2022-11-28T11:42:34.955Z,12.00
2022-11-28T11:45:33.260Z,12.80
2022-11-28T11:48:54.937Z,12.97
2022-11-28T11:51:41.935Z,11.83
2022-11-28T11:54:29.358Z,12.27
2022-11-28T11:57:32.720Z,14.53
2022-11-28T12:00:39.825Z,12.87
2022-11-28T12:03:39.953Z,13.70
2022-11-28T12:06:36.810Z,12.80
2022-11-28T12:09:45.483Z,13.60
2022-11-28T12:12:38.529Z,12.30
2022-11-28T12:15:45.832Z,12.90
2022-11-28T12:19:08.691Z,12.33
2022-11-28T12:22:07.304Z,12.53
2022-11-28T12:25:15.520Z,12.50
2022-11-28T12:28:16.253Z,11.87
2022-11-28T12:31:17.342Z,13.60
2022-11-28T12:34:05.197Z,14.27
2022-11-28T12:37:08.956Z,15.97
2022-11-28T12:40:23.634Z,13.80
2022-11-28T12:43:33.528Z,15.30
2022-11-28T12:46:48.439Z,14.93
2022-11-28T12:49:59.126Z,15.80
2022-11-28T12:53:04.225Z,14.90
2022-11-28T12:56:30.040Z,14.03
2022-11-28T12:59:32.065Z,14.67
2022-11-28T13:02:37.921Z,15.70
2022-11-28T13:05:47.807Z,16.33
2022-11-28T13:09:03.702Z,16.00
2022-11-28T13:12:45.753Z,14.40
2022-11-28T13:15:41.522Z,16.07
2022-11-28T13:18:41.016Z,16.60
2022-11-28T13:21:42.918Z,15.13
2022-11-28T13:24:49.184Z,14.30
2022-11-28T13:27:45.344Z,13.60
2022-11-28T13:30:41.796Z,14.10
2022-11-28T13:33:51.416Z,14.30
2022-11-28T13:40:49.809Z,13.47
2022-11-28T13:43:56.798Z,14.00
2022-11-28T13:46:45.513Z,14.17
2022-11-28T13:49:32.545Z,14.30
2022-11-28T13:52:19.393Z,13.53
2022-11-28T13:55:44.902Z,13.50
2022-11-28T13:58:34.644Z,13.10
2022-11-28T14:01:43.060Z,13.63
2022-11-28T14:04:31.998Z,13.03
2022-11-28T14:07:32.897Z,12.97
2022-11-28T14:10:57.933Z,13.30
2022-11-28T14:13:54.267Z,12.67
2022-11-28T14:16:51.998Z,14.27
2022-11-28T14:19:49.165Z,13.27
2022-11-28T14:23:00.987Z,12.90
2022-11-28T14:25:52.948Z,11.53
2022-11-28T14:28:44.644Z,13.37
2022-11-28T14:31:38.026Z,13.53
2022-11-28T14:34:47.339Z,13.33
2022-11-28T14:37:46.314Z,14.17
2022-11-28T14:41:01.773Z,12.67
2022-11-28T14:43:49.558Z,12.63
2022-11-28T14:46:56.430Z,12.47
2022-11-28T14:49:43.702Z,13.03
2022-11-28T14:52:41.483Z,12.60
2022-11-28T14:55:28.814Z,11.33
2022-11-28T14:58:17.316Z,11.70
2022-11-28T15:01:12.579Z,11.97
2022-11-28T15:04:08.830Z,11.57
2022-11-28T15:06:55.965Z,12.43
2022-11-28T15:09:53.379Z,12.80
2022-11-28T15:13:05.414Z,12.30
2022-11-28T15:15:53.412Z,13.53
2022-11-28T15:18:54.796Z,13.10
2022-11-28T15:21:46.736Z,12.60
2022-11-28T15:24:35.372Z,13.80
2022-11-28T15:27:27.327Z,14.60
2022-11-28T15:30:19.778Z,14.50
2022-11-28T15:33:06.799Z,15.67
2022-11-28T15:36:10.674Z,16.30
2022-11-28T15:38:57.731Z,22.20
2022-11-28T15:41:46.025Z,19.60
2022-11-28T15:44:33.279Z,18.63
2022-11-28T15:47:21.979Z,16.73
2022-11-28T15:50:22.827Z,15.50
2022-11-28T15:53:20.952Z,15.87
2022-11-28T15:56:15.663Z,15.07
2022-11-28T15:59:02.811Z,12.80
2022-11-28T16:01:52.556Z,12.60
2022-11-28T16:04:44.345Z,13.60
2022-11-28T16:07:32.699Z,14.00
2022-11-28T16:10:39.936Z,13.33
2022-11-28T16:13:28.776Z,11.40
2022-11-28T16:16:19.314Z,11.40
2022-11-28T16:18:53.311Z,12.80
2022-11-28T16:21:23.762Z,13.17
2022-11-28T16:23:50.907Z,11.90
2022-11-28T16:26:22.522Z,12.40
2022-11-28T16:29:07.786Z,13.37
2022-11-28T16:31:34.938Z,11.60
2022-11-28T16:34:02.703Z,11.63
2022-11-28T16:36:36.778Z,12.63
2022-11-28T16:39:09.512Z,12.00
2022-11-28T16:41:38.879Z,11.50
2022-11-28T16:44:14.274Z,11.33
2022-11-28T16:46:48.756Z,13.20
2022-11-28T16:49:39.334Z,12.00
2022-11-28T16:52:21.485Z,10.90
2022-11-28T16:54:52.220Z,10.97
2022-11-28T16:57:20.408Z,11.93
2022-11-28T16:59:48.993Z,12.03
2022-11-28T17:02:26.853Z,12.30
2022-11-28T17:04:55.234Z,11.40
2022-11-28T17:07:24.174Z,12.90
2022-11-28T17:09:51.545Z,12.77
2022-11-28T17:12:28.613Z,14.40
2022-11-28T17:14:56.570Z,14.67
2022-11-28T17:17:23.982Z,13.93
2022-11-28T17:19:51.140Z,13.60
2022-11-28T17:22:21.715Z,14.73
2022-11-28T17:24:49.542Z,13.87
2022-11-28T17:27:16.470Z,16.53
2022-11-28T17:29:44.178Z,13.67
2022-11-28T17:32:13.397Z,14.17
2022-11-28T17:34:42.163Z,13.80
2022-11-28T17:37:09.741Z,15.63
2022-11-28T17:39:36.590Z,15.60
2022-11-28T17:42:04.025Z,14.30
2022-11-28T17:44:33.569Z,17.97
2022-11-28T17:47:01.499Z,19.87
2022-11-28T17:49:29.192Z,15.60
2022-11-28T17:51:56.533Z,15.80
2022-11-28T17:54:25.594Z,15.47
2022-11-28T17:56:53.192Z,14.50
2022-11-28T17:59:23.541Z,14.50
2022-11-28T18:01:50.724Z,14.40
2022-11-28T18:04:17.746Z,15.53
2022-11-28T18:06:47.884Z,13.83
2022-11-28T18:09:14.973Z,14.90
2022-11-28T18:11:42.801Z,14.87
2022-11-28T18:14:10.451Z,13.90
2022-11-28T18:16:39.536Z,13.90
2022-11-28T18:19:06.549Z,15.30
2022-11-28T18:21:33.490Z,13.83
2022-11-28T18:24:00.285Z,12.97
2022-11-28T18:26:27.148Z,14.40
2022-11-28T18:28:54.599Z,14.90
2022-11-28T18:31:26.702Z,14.27
2022-11-28T18:33:58.777Z,14.00
2022-11-28T18:36:30.278Z,14.07
2022-11-28T18:38:58.347Z,13.27
2022-11-28T18:41:26.070Z,13.73
2022-11-28T18:43:57.127Z,15.77
2022-11-28T18:46:25.247Z,16.13
2022-11-28T18:48:52.416Z,16.70
2022-11-28T18:51:23.643Z,14.43
2022-11-28T18:53:52.288Z,14.30
2022-11-28T18:56:20.500Z,14.90
2022-11-28T18:58:52.022Z,12.23
2022-11-28T19:01:28.474Z,14.33
2022-11-28T19:03:59.651Z,13.00
2022-11-28T19:06:26.783Z,14.20
2022-11-28T19:08:56.459Z,13.90
2022-11-28T19:11:23.478Z,14.70
2022-11-28T19:13:52.984Z,13.70
2022-11-28T19:16:32.460Z,15.33
2022-11-28T19:19:00.061Z,16.00
2022-11-28T19:21:29.234Z,17.17
2022-11-28T19:23:57.392Z,15.33
2022-11-28T19:26:26.314Z,16.57
2022-11-28T19:28:53.177Z,15.40
2022-11-28T19:31:22.569Z,17.70
2022-11-28T19:34:02.215Z,14.70
2022-11-28T19:36:31.715Z,15.23
2022-11-28T19:38:59.916Z,15.37
2022-11-28T19:41:27.694Z,13.60
2022-11-28T19:43:54.961Z,15.27
2022-11-28T19:46:22.214Z,15.37
2022-11-28T20:02:23.548Z,16.30
2022-11-28T20:05:04.483Z,15.67
2022-11-28T20:07:41.971Z,15.57
2022-11-28T20:10:25.699Z,14.57
2022-11-28T20:18:08.552Z,15.80
2022-11-28T20:20:35.349Z,15.70
2022-11-28T20:23:02.129Z,14.40
2022-11-28T20:25:28.932Z,15.30
2022-11-28T20:27:55.697Z,15.50
2022-11-28T20:30:22.415Z,16.13
2022-11-28T20:32:49.208Z,14.90
2022-11-28T20:35:16.421Z,16.40
2022-11-28T20:37:43.456Z,16.43
2022-11-28T20:40:10.692Z,15.07
2022-11-28T20:42:40.033Z,15.43
2022-11-28T20:45:07.865Z,15.70
2022-11-28T20:47:35.254Z,14.93
2022-11-28T20:50:02.043Z,15.60
2022-11-28T20:52:28.893Z,14.13
2022-11-28T20:54:56.155Z,15.53
2022-11-28T20:57:23.219Z,14.50
2022-11-28T20:59:50.122Z,16.70
2022-11-28T21:02:17.237Z,17.43
2022-11-28T21:04:44.013Z,17.70
2022-11-28T21:07:10.684Z,18.83
2022-11-28T21:09:37.665Z,19.57
2022-11-28T21:12:04.574Z,19.70
2022-11-28T21:14:32.290Z,18.00
2022-11-28T21:16:59.426Z,18.13
2022-11-28T21:19:26.233Z,19.27
2022-11-28T21:21:53.139Z,20.77
2022-11-28T21:24:20.090Z,21.53
2022-11-28T21:26:53.084Z,21.20
2022-11-28T21:29:21.809Z,21.57
2022-11-28T21:31:49.047Z,21.50
2022-11-28T21:34:16.764Z,23.00
2022-11-28T21:36:44.093Z,22.67
2022-11-28T21:39:14.539Z,22.93
2022-11-28T21:41:41.401Z,23.80
2022-11-28T21:44:08.660Z,23.60
2022-11-28T21:46:35.863Z,26.00
2022-11-28T21:49:02.712Z,25.13
2022-11-28T21:51:29.484Z,25.47
2022-11-28T21:53:57.464Z,24.17
2022-11-28T21:56:25.378Z,24.50
2022-11-28T21:58:52.462Z,23.47
2022-11-28T22:01:21.644Z,28.10
2022-11-28T22:03:48.824Z,24.57
2022-11-28T22:06:26.101Z,24.40
2022-11-28T22:08:54.043Z,27.80
2022-11-28T22:11:21.768Z,29.17
2022-11-28T22:13:49.573Z,27.60
2022-11-28T22:16:18.793Z,29.60
2022-11-28T22:18:47.358Z,27.70
2022-11-28T22:21:49.775Z,27.97
2022-11-28T22:24:04.426Z,28.17
2022-11-28T22:26:31.512Z,27.60
2022-11-28T22:28:59.036Z,29.60
2022-11-28T22:31:25.869Z,28.60
2022-11-28T22:33:52.967Z,30.27
2022-11-28T22:36:20.958Z,29.17
2022-11-28T22:38:49.315Z,28.50
2022-11-28T22:41:22.029Z,29.00
2022-11-28T22:43:55.327Z,30.20
2022-11-28T22:46:22.063Z,29.13
2022-11-28T22:48:49.174Z,28.43
2022-11-28T22:51:23.213Z,30.60
2022-11-28T22:53:54.575Z,28.40
2022-11-28T22:56:21.471Z,28.60
2022-11-28T22:58:48.637Z,31.20
2022-11-28T23:01:17.869Z,30.40
2022-11-28T23:03:45.718Z,32.30
2022-11-28T23:06:15.447Z,31.77
2022-11-28T23:08:43.238Z,30.47
2022-11-28T23:11:15.558Z,32.73
2022-11-28T23:13:42.982Z,32.77
2022-11-28T23:16:11.218Z,33.03
2022-11-28T23:18:38.571Z,28.57
2022-11-28T23:21:06.049Z,30.80
2022-11-28T23:23:34.124Z,30.70
2022-11-28T23:26:09.590Z,30.50
2022-11-28T23:28:37.534Z,30.63
2022-11-28T23:31:13.111Z,31.63
2022-11-28T23:33:40.720Z,29.20
2022-11-28T23:36:18.359Z,31.77
2022-11-28T23:38:46.329Z,29.93
2022-11-28T23:41:13.553Z,30.00
2022-11-28T23:43:40.808Z,32.17
2022-11-28T23:46:09.196Z,32.27
2022-11-28T23:48:36.162Z,32.07
2022-11-28T23:51:03.759Z,33.83
2022-11-28T23:53:31.881Z,34.87
2022-11-28T23:56:17.478Z,33.07
2022-11-28T23:58:44.335Z,34.47
